Time;durP1;ratioP1;P1;durP2;ratioP2;P2;SDS_P1;SDS_P2;PMS_P1;PMS_P2;Temp;Humidity;BMP_temperature;BMP_pressure;BME280_temperature;BME280_humidity;BME280_pressure;Samples;Min_cycle;Max_cycle;Signal;HPM_P1;HPM_P2
2022/06/26 00:01:32;;;;;;;8.37;5.97;;;23.70;99.90;;;;;;5040977;28;20492;-77
2022/06/26 00:03:58;;;;;;;6.20;5.70;;;23.70;99.90;;;;;;5044490;28;20477;-74
2022/06/26 00:06:25;;;;;;;6.57;5.97;;;23.60;99.90;;;;;;5034724;28;20582;-74
2022/06/26 00:08:52;;;;;;;7.23;5.77;;;23.60;99.90;;;;;;5042500;28;20458;-76
2022/06/26 00:11:21;;;;;;;6.47;5.60;;;23.50;99.90;;;;;;5058603;28;20497;-76
2022/06/26 00:13:48;;;;;;;6.70;6.10;;;23.50;99.90;;;;;;5049871;28;20503;-77
2022/06/26 00:16:15;;;;;;;6.07;5.57;;;23.50;99.90;;;;;;5055695;28;20465;-76
2022/06/26 00:18:42;;;;;;;7.30;6.27;;;23.50;99.90;;;;;;5048125;28;20450;-76
2022/06/26 00:21:10;;;;;;;7.10;6.43;;;23.40;99.90;;;;;;5048987;28;20509;-76
2022/06/26 00:23:36;;;;;;;6.60;5.90;;;23.40;99.90;;;;;;5039399;28;20489;-77
2022/06/26 00:26:04;;;;;;;6.20;5.60;;;23.40;99.90;;;;;;5042002;28;20552;-75
2022/06/26 00:28:32;;;;;;;6.77;6.17;;;23.40;99.90;;;;;;5031992;28;20455;-76
2022/06/26 00:31:01;;;;;;;6.60;6.00;;;23.30;99.90;;;;;;5042075;28;20458;-77
2022/06/26 00:33:28;;;;;;;7.47;6.63;;;23.30;99.90;;;;;;5044154;28;20944;-76
2022/06/26 00:35:54;;;;;;;6.23;5.73;;;23.30;99.90;;;;;;5042529;28;20517;-76
2022/06/26 00:38:21;;;;;;;6.47;5.90;;;23.20;99.90;;;;;;5031191;28;20550;-75
2022/06/26 00:40:48;;;;;;;6.90;6.30;;;23.20;99.90;;;;;;5041248;28;20525;-74
2022/06/26 00:43:15;;;;;;;6.67;6.07;;;23.20;99.90;;;;;;5029650;28;20471;-75
2022/06/26 00:45:43;;;;;;;6.40;5.87;;;23.20;99.90;;;;;;5033612;28;20833;-75
2022/06/26 00:48:10;;;;;;;6.43;5.83;;;23.20;99.90;;;;;;5033539;28;20545;-75
2022/06/26 00:50:37;;;;;;;7.47;6.57;;;23.10;99.90;;;;;;5041725;28;20486;-75
2022/06/26 00:53:05;;;;;;;6.20;5.70;;;23.10;99.90;;;;;;5041522;28;20515;-74
2022/06/26 00:55:33;;;;;;;6.33;5.83;;;23.10;99.90;;;;;;5038027;28;20545;-75
2022/06/26 00:58:01;;;;;;;7.80;6.90;;;23.10;99.90;;;;;;5035641;28;20507;-75
2022/06/26 01:00:30;;;;;;;6.53;6.03;;;23.00;99.90;;;;;;5040394;28;20525;-76
2022/06/26 01:02:58;;;;;;;8.63;7.57;;;22.90;99.90;;;;;;5036551;28;20478;-76
2022/06/26 01:05:25;;;;;;;6.97;6.37;;;22.90;99.90;;;;;;5030445;28;20960;-76
2022/06/26 01:07:52;;;;;;;7.67;6.90;;;22.80;99.90;;;;;;5032798;28;20859;-76
2022/06/26 01:10:21;;;;;;;5.90;5.33;;;22.80;99.90;;;;;;5032251;28;20453;-76
2022/06/26 01:12:48;;;;;;;7.70;7.00;;;22.80;99.90;;;;;;5028180;28;20435;-76
2022/06/26 01:15:15;;;;;;;7.03;6.43;;;22.70;99.90;;;;;;5037254;28;20549;-76
2022/06/26 01:17:45;;;;;;;6.50;6.00;;;22.70;99.90;;;;;;5033475;28;20526;-76
2022/06/26 01:20:14;;;;;;;10.37;6.67;;;22.60;99.90;;;;;;5040492;28;20469;-77
2022/06/26 01:22:42;;;;;;;6.90;6.23;;;22.50;99.90;;;;;;5039637;28;20481;-76
2022/06/26 01:25:17;;;;;;;6.50;5.90;;;22.50;99.90;;;;;;5034762;28;20832;-76
2022/06/26 01:27:55;;;;;;;7.73;6.50;;;22.50;99.90;;;;;;5020281;28;20528;-76
2022/06/26 01:30:22;;;;;;;7.50;6.80;;;22.40;99.90;;;;;;5036403;28;20482;-76
2022/06/26 01:32:48;;;;;;;7.00;6.30;;;22.30;99.90;;;;;;5047592;28;20504;-76
2022/06/26 01:35:26;;;;;;;7.27;6.63;;;22.30;99.90;;;;;;5045398;28;20530;-75
2022/06/26 01:37:54;;;;;;;7.33;6.63;;;22.20;99.90;;;;;;5049958;28;20525;-74
2022/06/26 01:40:21;;;;;;;8.10;7.33;;;22.20;99.90;;;;;;5047354;28;20454;-75
2022/06/26 01:42:54;;;;;;;7.47;6.40;;;22.10;99.90;;;;;;5055073;28;20516;-76
2022/06/26 01:45:21;;;;;;;8.67;5.50;;;22.10;99.90;;;;;;5046955;28;20455;-76
2022/06/26 01:47:48;;;;;;;6.50;5.93;;;22.00;99.90;;;;;;5027941;28;20795;-75
2022/06/26 01:50:15;;;;;;;6.50;6.00;;;21.90;99.90;;;;;;5028385;28;20940;-75
2022/06/26 01:52:42;;;;;;;6.30;5.80;;;21.80;99.90;;;;;;5025053;28;20445;-75
2022/06/26 01:55:11;;;;;;;7.00;6.27;;;21.70;99.90;;;;;;5033550;28;20474;-76
2022/06/26 01:57:38;;;;;;;6.87;6.37;;;21.70;99.90;;;;;;5032940;28;20447;-77
2022/06/26 02:00:06;;;;;;;6.80;6.23;;;21.60;99.90;;;;;;5034411;28;20967;-76
2022/06/26 02:02:35;;;;;;;6.60;6.10;;;21.50;99.90;;;;;;5035238;28;20558;-75
2022/06/26 02:05:02;;;;;;;7.40;6.70;;;21.50;99.90;;;;;;5035325;28;20542;-76
2022/06/26 02:07:29;;;;;;;9.00;8.20;;;21.30;99.90;;;;;;5026898;28;20498;-75
2022/06/26 02:15:27;;;;;;;7.07;6.40;;;21.20;99.90;;;;;;5040643;28;20460;-77
2022/06/26 02:17:55;;;;;;;6.37;5.90;;;21.20;99.90;;;;;;5042374;28;20447;-76
2022/06/26 02:20:22;;;;;;;7.13;6.53;;;21.20;99.90;;;;;;5047322;28;20473;-76
2022/06/26 02:22:49;;;;;;;7.90;7.20;;;21.10;99.90;;;;;;5043280;28;20942;-76
2022/06/26 02:25:16;;;;;;;6.77;6.17;;;21.00;99.90;;;;;;5040323;28;20465;-76
2022/06/26 02:27:45;;;;;;;7.57;6.93;;;21.00;99.90;;;;;;5050230;28;20897;-75
2022/06/26 02:30:12;;;;;;;7.40;6.80;;;20.90;99.90;;;;;;5050607;28;20545;-75
2022/06/26 02:32:39;;;;;;;8.57;7.77;;;20.90;99.90;;;;;;5038114;28;20565;-75
2022/06/26 02:35:10;;;;;;;8.07;6.43;;;20.80;99.90;;;;;;5045115;28;20548;-76
2022/06/26 02:37:38;;;;;;;13.50;6.00;;;20.80;99.90;;;;;;5036877;28;20445;-75
2022/06/26 02:40:06;;;;;;;6.60;6.10;;;20.80;99.90;;;;;;5048894;28;20445;-76
2022/06/26 02:42:39;;;;;;;10.03;8.00;;;20.80;99.90;;;;;;5046587;28;20449;-75
2022/06/26 02:45:09;;;;;;;7.27;6.67;;;20.80;99.90;;;;;;5032572;28;20548;-75
2022/06/26 02:47:36;;;;;;;8.73;7.90;;;20.70;99.90;;;;;;5044827;28;20443;-76
2022/06/26 02:50:03;;;;;;;7.70;7.10;;;20.70;99.90;;;;;;5044309;28;20492;-75
2022/06/26 02:52:30;;;;;;;8.10;7.30;;;20.60;99.90;;;;;;5033373;28;20474;-75
2022/06/26 02:54:57;;;;;;;8.60;7.73;;;20.60;99.90;;;;;;5037494;28;20983;-75
2022/06/26 02:57:24;;;;;;;7.60;6.43;;;20.60;99.90;;;;;;5044215;28;20808;-76
2022/06/26 02:59:51;;;;;;;8.00;7.27;;;20.60;99.90;;;;;;5041447;28;20451;-76
2022/06/26 03:02:19;;;;;;;7.63;6.93;;;20.50;99.90;;;;;;5038470;28;20532;-76
2022/06/26 03:04:46;;;;;;;7.40;6.53;;;20.60;99.90;;;;;;5035896;28;20783;-74
2022/06/26 03:07:13;;;;;;;7.27;6.57;;;20.50;99.90;;;;;;5046123;28;20448;-77
2022/06/26 03:09:40;;;;;;;7.30;6.60;;;20.50;99.90;;;;;;5043007;28;20542;-74
2022/06/26 03:12:08;;;;;;;9.20;6.07;;;20.50;99.90;;;;;;5040369;28;20486;-75
2022/06/26 03:14:35;;;;;;;7.87;7.00;;;20.50;99.90;;;;;;5039956;28;20446;-75
2022/06/26 03:17:02;;;;;;;6.80;6.10;;;20.40;99.90;;;;;;5035800;28;20504;-76
2022/06/26 03:19:31;;;;;;;6.90;6.30;;;20.40;99.90;;;;;;5038600;28;20878;-76
2022/06/26 03:21:58;;;;;;;7.57;7.00;;;20.40;99.90;;;;;;5039092;28;20867;-75
2022/06/26 03:24:25;;;;;;;7.80;7.03;;;20.30;99.90;;;;;;5035689;28;20540;-74
2022/06/26 03:26:51;;;;;;;7.20;6.60;;;20.30;99.90;;;;;;5045044;28;20812;-77
2022/06/26 03:29:19;;;;;;;8.27;7.47;;;20.40;99.90;;;;;;5043182;28;20469;-77
2022/06/26 03:31:46;;;;;;;5.77;5.37;;;20.30;99.90;;;;;;5035480;28;20457;-76
2022/06/26 03:34:13;;;;;;;7.20;6.43;;;20.40;99.90;;;;;;5045224;28;20486;-76
2022/06/26 03:36:42;;;;;;;6.67;6.17;;;20.30;99.90;;;;;;5045590;28;20579;-76
2022/06/26 03:39:08;;;;;;;8.10;6.57;;;20.40;99.90;;;;;;5036547;28;20445;-76
2022/06/26 03:41:36;;;;;;;7.60;6.30;;;20.40;99.90;;;;;;5038795;28;20504;-76
2022/06/26 03:44:02;;;;;;;6.17;5.67;;;20.40;99.90;;;;;;5039237;28;20454;-76
2022/06/26 03:46:29;;;;;;;7.87;6.40;;;20.40;99.90;;;;;;5035438;28;20550;-77
2022/06/26 03:48:56;;;;;;;7.40;6.70;;;20.40;99.90;;;;;;5039415;28;20472;-75
2022/06/26 03:51:23;;;;;;;8.00;7.20;;;20.50;99.90;;;;;;5044667;28;20493;-75
2022/06/26 03:53:52;;;;;;;7.23;6.53;;;20.50;99.90;;;;;;5030158;28;20576;-75
2022/06/26 03:56:18;;;;;;;6.60;6.03;;;20.60;99.90;;;;;;5036065;28;20504;-76
2022/06/26 03:58:45;;;;;;;6.70;6.20;;;20.60;99.90;;;;;;5041216;28;20447;-75
2022/06/26 04:01:12;;;;;;;7.13;6.53;;;20.70;99.90;;;;;;5042250;28;20453;-75
2022/06/26 04:03:39;;;;;;;7.13;6.43;;;20.70;99.90;;;;;;5042086;28;20448;-76
2022/06/26 04:06:06;;;;;;;7.53;6.47;;;20.80;99.90;;;;;;5035567;28;20998;-74
2022/06/26 04:08:34;;;;;;;9.30;5.60;;;21.10;99.90;;;;;;5036815;28;21029;-75
2022/06/26 04:11:02;;;;;;;7.23;6.47;;;21.50;99.90;;;;;;5045923;28;20793;-76
2022/06/26 04:13:29;;;;;;;6.83;6.10;;;22.00;99.90;;;;;;5032357;28;20601;-76
2022/06/26 04:15:56;;;;;;;6.10;5.43;;;22.60;99.90;;;;;;5034694;28;20549;-76
2022/06/26 04:18:23;;;;;;;5.93;5.43;;;23.30;99.90;;;;;;5031272;28;20833;-75
2022/06/26 04:20:50;;;;;;;6.63;5.40;;;23.90;99.90;;;;;;5040171;28;20578;-76
2022/06/26 04:23:17;;;;;;;9.60;5.80;;;24.60;99.90;;;;;;5035730;28;20813;-75
2022/06/26 04:25:44;;;;;;;5.40;4.90;;;25.20;99.90;;;;;;5042396;28;20504;-75
2022/06/26 04:28:12;;;;;;;5.17;4.67;;;25.90;99.90;;;;;;5037562;28;20461;-76
2022/06/26 04:30:39;;;;;;;5.47;4.97;;;26.50;98.70;;;;;;5031172;28;20477;-73
2022/06/26 04:33:06;;;;;;;5.30;4.80;;;26.90;96.90;;;;;;5055180;28;20478;-72
2022/06/26 04:35:39;;;;;;;5.73;5.23;;;27.30;95.70;;;;;;5047076;28;20498;-74
2022/06/26 04:38:06;;;;;;;6.27;4.33;;;27.60;94.60;;;;;;5042911;28;20526;-75
2022/06/26 04:40:33;;;;;;;5.03;4.50;;;28.00;93.70;;;;;;5040749;28;20481;-73
2022/06/26 04:43:00;;;;;;;5.10;4.70;;;28.20;92.70;;;;;;5040504;28;20562;-74
2022/06/26 04:45:28;;;;;;;5.70;4.73;;;28.00;92.60;;;;;;5043889;28;20479;-75
2022/06/26 04:47:55;;;;;;;4.67;4.30;;;28.30;92.60;;;;;;5027183;28;20451;-75
2022/06/26 04:50:22;;;;;;;4.10;3.80;;;28.90;91.20;;;;;;5033490;28;20571;-75
2022/06/26 04:52:50;;;;;;;5.00;4.50;;;28.90;90.90;;;;;;5030570;28;20472;-74
2022/06/26 04:55:17;;;;;;;4.90;4.50;;;29.30;90.10;;;;;;5034584;28;20467;-75
2022/06/26 04:57:45;;;;;;;6.03;4.40;;;29.60;88.30;;;;;;5032246;28;20475;-75
2022/06/26 05:00:14;;;;;;;4.90;4.10;;;29.70;87.70;;;;;;5048725;28;20450;-74
2022/06/26 05:02:44;;;;;;;6.30;4.00;;;30.10;86.60;;;;;;5054995;28;20471;-74
2022/06/26 05:05:11;;;;;;;6.17;5.67;;;30.20;84.80;;;;;;5056594;28;20471;-75
2022/06/26 05:07:38;;;;;;;4.53;4.13;;;30.40;82.80;;;;;;5063200;28;20470;-75
2022/06/26 05:10:08;;;;;;;8.23;3.90;;;30.50;82.60;;;;;;5036635;28;20808;-75
2022/06/26 05:12:35;;;;;;;6.20;3.67;;;30.50;82.20;;;;;;5039826;28;20560;-75
2022/06/26 05:15:02;;;;;;;4.00;3.70;;;30.20;82.70;;;;;;5043746;28;20550;-75
2022/06/26 05:17:29;;;;;;;3.83;3.40;;;30.20;82.70;;;;;;5037515;28;20484;-75
2022/06/26 05:19:58;;;;;;;3.90;3.47;;;29.70;83.10;;;;;;5031445;28;20479;-74
2022/06/26 05:22:25;;;;;;;4.23;3.93;;;29.40;84.40;;;;;;5033010;28;20458;-74
2022/06/26 05:24:51;;;;;;;6.47;3.80;;;29.20;84.90;;;;;;5044307;28;20543;-74
2022/06/26 05:27:18;;;;;;;3.90;3.50;;;29.00;85.30;;;;;;5046952;28;20550;-75
2022/06/26 05:29:45;;;;;;;3.70;3.40;;;29.30;85.70;;;;;;5045772;28;20462;-75
2022/06/26 05:32:12;;;;;;;3.60;3.30;;;29.60;84.60;;;;;;5040793;28;20455;-75
2022/06/26 05:34:39;;;;;;;7.93;4.37;;;29.60;84.20;;;;;;5037701;28;20531;-75
2022/06/26 05:37:08;;;;;;;3.93;3.50;;;29.50;84.60;;;;;;5036788;28;20628;-75
2022/06/26 05:39:34;;;;;;;3.73;3.43;;;29.10;85.90;;;;;;5048054;28;20450;-76
2022/06/26 05:42:02;;;;;;;4.00;3.70;;;29.10;85.80;;;;;;5045233;28;20537;-75
2022/06/26 05:44:29;;;;;;;5.57;4.40;;;28.80;86.20;;;;;;5039111;28;20485;-74
2022/06/26 05:47:00;;;;;;;3.70;3.40;;;28.90;86.60;;;;;;5037030;28;20502;-75
2022/06/26 05:49:27;;;;;;;6.43;4.00;;;28.90;87.20;;;;;;5031694;28;20435;-75
2022/06/26 05:51:54;;;;;;;5.83;4.07;;;28.80;87.00;;;;;;5033990;28;20443;-74
2022/06/26 05:54:23;;;;;;;4.70;4.30;;;28.40;88.00;;;;;;5028479;28;20518;-74
2022/06/26 05:56:50;;;;;;;4.63;4.23;;;27.90;89.80;;;;;;5043732;28;20512;-75
2022/06/26 05:59:17;;;;;;;8.53;4.40;;;27.30;91.00;;;;;;5043590;28;20491;-75
2022/06/26 06:01:44;;;;;;;5.60;4.00;;;27.10;92.00;;;;;;5046090;28;20438;-75
2022/06/26 06:04:11;;;;;;;6.20;5.27;;;27.20;92.20;;;;;;5046783;28;20529;-75
2022/06/26 06:06:38;;;;;;;6.60;5.27;;;28.00;91.50;;;;;;5033578;28;20467;-75
2022/06/26 06:09:07;;;;;;;4.67;4.20;;;28.80;90.40;;;;;;5034040;28;20489;-76
2022/06/26 06:11:35;;;;;;;5.30;4.17;;;29.30;88.20;;;;;;5035023;28;20482;-75
2022/06/26 06:14:03;;;;;;;6.80;4.20;;;29.50;86.60;;;;;;5031611;28;20528;-75
2022/06/26 06:16:30;;;;;;;5.57;5.07;;;29.80;86.20;;;;;;5030790;28;20973;-74
2022/06/26 06:18:57;;;;;;;5.23;4.70;;;30.10;85.00;;;;;;5032891;28;20538;-75
2022/06/26 06:21:24;;;;;;;5.67;5.07;;;29.60;85.00;;;;;;5040812;28;20442;-75
2022/06/26 06:23:51;;;;;;;5.10;4.27;;;30.00;84.90;;;;;;5034128;28;20980;-75
2022/06/26 06:26:18;;;;;;;5.97;5.40;;;30.40;84.70;;;;;;5035164;28;20911;-76
2022/06/26 06:28:46;;;;;;;7.17;6.43;;;30.50;83.10;;;;;;5030760;28;20460;-76
2022/06/26 06:31:13;;;;;;;7.03;6.10;;;30.30;83.30;;;;;;5029941;28;20461;-75
2022/06/26 06:33:40;;;;;;;5.93;5.53;;;30.10;84.30;;;;;;5027156;28;21038;-74
2022/06/26 06:36:08;;;;;;;7.00;6.40;;;30.40;84.60;;;;;;5034092;28;21004;-76
2022/06/26 06:38:36;;;;;;;8.20;6.20;;;30.90;83.50;;;;;;5034092;28;20471;-75
2022/06/26 06:41:04;;;;;;;7.37;6.40;;;31.00;82.80;;;;;;5038402;28;20542;-75
2022/06/26 06:43:31;;;;;;;6.73;6.10;;;31.10;83.00;;;;;;5033790;28;20454;-77
2022/06/26 06:45:59;;;;;;;9.67;7.20;;;30.80;83.30;;;;;;5031644;28;20471;-75
2022/06/26 06:48:26;;;;;;;8.63;6.90;;;30.40;84.00;;;;;;5036184;28;20448;-76
2022/06/26 06:50:54;;;;;;;5.87;5.47;;;30.00;85.90;;;;;;5041179;28;20538;-77
2022/06/26 06:53:21;;;;;;;7.17;6.43;;;30.50;85.90;;;;;;5034159;28;20483;-77
2022/06/26 06:55:48;;;;;;;7.13;6.03;;;30.70;84.40;;;;;;5039766;28;20513;-76
2022/06/26 06:58:15;;;;;;;9.10;8.30;;;30.20;85.20;;;;;;5053756;28;20448;-76
2022/06/26 07:00:42;;;;;;;8.17;7.07;;;28.90;87.80;;;;;;5054354;28;20450;-76
2022/06/26 07:03:11;;;;;;;10.33;9.37;;;28.20;90.60;;;;;;5052175;28;20451;-75
2022/06/26 07:05:37;;;;;;;11.10;7.83;;;27.50;91.90;;;;;;5045120;28;20483;-76
2022/06/26 07:08:05;;;;;;;7.00;6.47;;;27.00;93.20;;;;;;5042165;28;20465;-76
2022/06/26 07:10:32;;;;;;;8.73;7.87;;;27.00;93.70;;;;;;5038708;28;20478;-76
2022/06/26 07:13:01;;;;;;;8.27;7.47;;;26.90;94.10;;;;;;5031857;28;20471;-76
2022/06/26 07:15:28;;;;;;;9.53;8.57;;;26.80;94.60;;;;;;5032573;28;21079;-76
2022/06/26 07:17:55;;;;;;;9.73;8.83;;;26.50;95.30;;;;;;5036401;28;20534;-76
2022/06/26 07:20:23;;;;;;;13.10;9.70;;;26.40;95.70;;;;;;5039817;28;20533;-76
2022/06/26 07:22:50;;;;;;;9.37;8.47;;;25.80;97.00;;;;;;5024926;28;20451;-76
2022/06/26 07:25:17;;;;;;;9.10;8.27;;;25.60;98.20;;;;;;5032984;28;20478;-75
2022/06/26 07:27:45;;;;;;;10.00;9.00;;;25.50;99.00;;;;;;5041781;28;20445;-77
2022/06/26 07:30:13;;;;;;;9.37;8.57;;;25.40;99.10;;;;;;5043813;28;20497;-77
2022/06/26 07:32:41;;;;;;;12.20;11.03;;;25.40;99.30;;;;;;5027014;28;20866;-76
2022/06/26 07:35:09;;;;;;;11.57;10.47;;;25.30;99.70;;;;;;5025174;28;20482;-76
2022/06/26 07:37:37;;;;;;;11.27;10.10;;;25.30;99.90;;;;;;5034922;28;20466;-76
2022/06/26 07:40:06;;;;;;;10.40;8.60;;;25.40;99.90;;;;;;5033378;28;20460;-76
2022/06/26 07:42:34;;;;;;;12.60;11.10;;;25.50;99.90;;;;;;5033321;28;20818;-76
2022/06/26 07:45:01;;;;;;;12.03;10.83;;;25.50;99.90;;;;;;5028707;28;20487;-75
2022/06/26 07:47:28;;;;;;;11.37;10.23;;;25.60;99.80;;;;;;5034473;28;20887;-76
2022/06/26 07:49:55;;;;;;;12.07;11.07;;;25.80;99.80;;;;;;5035885;28;20535;-77
2022/06/26 07:52:22;;;;;;;10.13;9.20;;;26.40;98.10;;;;;;5036942;28;20839;-76
2022/06/26 07:54:50;;;;;;;9.70;9.00;;;27.60;96.60;;;;;;5039863;28;21054;-77
2022/06/26 07:57:18;;;;;;;10.93;9.93;;;29.30;93.10;;;;;;5042313;28;20521;-77
2022/06/26 07:59:45;;;;;;;15.47;11.47;;;30.70;90.30;;;;;;5035706;28;21345;-75
2022/06/26 08:02:12;;;;;;;10.27;9.47;;;30.90;88.10;;;;;;5046065;28;20494;-75
2022/06/26 08:04:39;;;;;;;10.13;9.33;;;31.20;87.10;;;;;;5038756;28;20475;-77
2022/06/26 08:07:06;;;;;;;10.50;9.40;;;31.90;85.20;;;;;;5045159;28;20513;-76
2022/06/26 08:09:38;;;;;;;11.37;10.23;;;32.50;82.80;;;;;;5043602;28;20447;-77
2022/06/26 08:12:07;;;;;;;10.53;9.63;;;32.60;81.30;;;;;;5019026;28;20519;-75
2022/06/26 08:14:34;;;;;;;11.30;10.30;;;33.10;79.70;;;;;;5041763;28;20494;-76
2022/06/26 08:17:00;;;;;;;12.60;10.40;;;33.90;77.80;;;;;;5024903;28;20834;-78
2022/06/26 08:19:32;;;;;;;10.80;9.70;;;34.20;76.20;;;;;;5045696;28;20519;-79
2022/06/26 08:22:16;;;;;;;10.53;9.53;;;33.90;76.60;;;;;;5039991;28;20530;-76
2022/06/26 08:24:49;;;;;;;9.70;8.80;;;34.00;76.00;;;;;;5038792;28;20451;-76
2022/06/26 08:27:24;;;;;;;15.70;8.60;;;33.30;75.90;;;;;;5034222;28;20517;-80
2022/06/26 08:29:52;;;;;;;7.20;6.50;;;34.10;75.90;;;;;;5044234;28;20454;-76
2022/06/26 08:32:19;;;;;;;10.53;9.60;;;34.40;74.90;;;;;;5035395;28;20900;-79
2022/06/26 08:34:47;;;;;;;9.13;7.90;;;34.30;74.40;;;;;;5029156;28;20574;-77
2022/06/26 08:37:17;;;;;;;10.67;9.67;;;34.00;73.80;;;;;;5035828;28;20478;-75
2022/06/26 08:40:01;;;;;;;10.93;10.13;;;33.10;75.10;;;;;;5044495;28;20442;-78
2022/06/26 08:42:55;;;;;;;9.57;8.50;;;33.30;76.70;;;;;;5039650;28;20462;-76
2022/06/26 08:45:23;;;;;;;10.03;9.30;;;34.10;75.60;;;;;;5055625;28;20506;-77
2022/06/26 08:47:51;;;;;;;8.97;7.40;;;34.70;73.40;;;;;;5021184;28;20450;-77
2022/06/26 08:50:21;;;;;;;7.20;6.53;;;35.60;71.90;;;;;;5022398;28;20462;-77
2022/06/26 08:52:51;;;;;;;11.33;10.33;;;36.40;70.70;;;;;;5034675;28;20921;-77
2022/06/26 08:55:18;;;;;;;11.43;10.43;;;36.00;68.30;;;;;;5036376;28;20545;-75
2022/06/26 08:57:50;;;;;;;9.90;9.07;;;35.40;69.10;;;;;;5026111;28;20543;-73
2022/06/26 09:00:17;;;;;;;9.33;8.43;;;34.80;70.70;;;;;;5020780;28;20511;-73
2022/06/26 09:02:44;;;;;;;10.07;9.37;;;34.90;70.60;;;;;;5011026;28;20465;-74
2022/06/26 09:05:12;;;;;;;10.07;9.23;;;33.60;72.60;;;;;;5010298;28;20498;-74
2022/06/26 09:07:47;;;;;;;10.93;9.87;;;32.60;75.90;;;;;;5012238;28;21717;-72
2022/06/26 09:10:16;;;;;;;8.80;7.93;;;33.10;75.30;;;;;;5011988;28;20490;-72
2022/06/26 09:12:44;;;;;;;8.57;7.90;;;32.70;76.20;;;;;;5011728;28;21016;-73
2022/06/26 09:15:19;;;;;;;9.57;8.70;;;33.60;74.60;;;;;;5011944;28;20534;-73
2022/06/26 09:18:00;;;;;;;6.47;5.93;;;33.20;72.00;;;;;;5012924;28;21690;-73
2022/06/26 09:20:27;;;;;;;6.57;5.93;;;33.80;73.40;;;;;;5013946;28;20524;-72
2022/06/26 09:22:55;;;;;;;6.80;6.20;;;34.10;72.20;;;;;;5015144;28;20451;-73
2022/06/26 09:25:34;;;;;;;4.90;4.50;;;34.40;70.70;;;;;;5017936;28;20585;-72
2022/06/26 09:28:12;;;;;;;4.00;3.50;;;33.80;70.50;;;;;;5024396;28;20527;-72
2022/06/26 09:30:54;;;;;;;5.90;4.47;;;32.80;71.90;;;;;;5023548;28;20517;-73
2022/06/26 09:33:25;;;;;;;5.73;4.27;;;31.90;73.80;;;;;;5017384;28;20527;-73
2022/06/26 09:35:53;;;;;;;4.20;3.27;;;32.00;74.40;;;;;;5020077;28;20617;-73
2022/06/26 09:38:22;;;;;;;3.37;3.13;;;32.30;75.10;;;;;;5020417;28;20443;-72
2022/06/26 09:40:50;;;;;;;6.73;3.40;;;33.50;73.00;;;;;;5015073;28;20543;-73
2022/06/26 09:43:28;;;;;;;3.97;3.67;;;33.70;71.40;;;;;;5015628;28;20568;-72
2022/06/26 09:45:57;;;;;;;3.20;2.87;;;34.00;70.80;;;;;;5019714;28;20494;-73
2022/06/26 09:48:28;;;;;;;4.17;3.77;;;34.80;68.70;;;;;;5029604;28;20466;-72
2022/06/26 09:50:56;;;;;;;3.17;2.87;;;34.60;67.60;;;;;;5029158;28;20440;-74
2022/06/26 09:53:27;;;;;;;3.87;3.53;;;34.30;69.10;;;;;;5029992;28;20781;-73
2022/06/26 09:55:56;;;;;;;3.77;3.47;;;33.00;70.10;;;;;;5032143;28;20537;-72
2022/06/26 09:58:24;;;;;;;3.77;3.47;;;33.00;71.70;;;;;;5026394;28;20453;-72
2022/06/26 10:06:51;;;;;;;3.40;3.10;;;33.30;70.20;;;;;;5025948;28;20454;-72
2022/06/26 10:09:19;;;;;;;4.57;2.83;;;32.90;70.60;;;;;;5042569;28;20443;-71
2022/06/26 10:11:53;;;;;;;3.53;2.80;;;32.00;72.60;;;;;;5023550;28;20521;-72
2022/06/26 10:14:22;;;;;;;3.63;2.93;;;31.40;74.50;;;;;;5027035;28;20519;-72
2022/06/26 10:17:29;;;;;;;3.33;3.03;;;30.80;75.90;;;;;;5027146;28;20547;-72
2022/06/26 10:20:03;;;;;;;3.50;3.20;;;30.50;77.60;;;;;;4969271;28;20445;-72
2022/06/26 10:22:39;;;;;;;3.13;2.93;;;30.70;77.60;;;;;;4971924;28;20554;-69
2022/06/26 10:25:08;;;;;;;2.87;2.57;;;30.70;77.60;;;;;;5040162;28;20490;-74
2022/06/26 10:27:37;;;;;;;2.77;2.50;;;31.10;75.50;;;;;;5048827;28;20521;-73
2022/06/26 10:30:10;;;;;;;2.50;2.30;;;30.80;75.30;;;;;;5032188;28;20501;-73
2022/06/26 10:32:38;;;;;;;2.80;2.50;;;31.50;75.20;;;;;;5029039;28;20442;-74
2022/06/26 10:35:07;;;;;;;3.23;2.07;;;31.40;74.30;;;;;;5023884;28;20495;-73
2022/06/26 10:37:42;;;;;;;3.73;2.40;;;31.30;73.10;;;;;;5017645;28;20462;-72
2022/06/26 10:42:52;;;;;;;2.73;2.53;;;31.20;75.10;;;;;;5010071;28;21409;-72
2022/06/26 10:43:01;;;;;;;5.70;2.20;;;31.10;74.80;;;;;;5007382;28;20435;-71
2022/06/26 10:45:30;;;;;;;2.80;2.40;;;30.60;75.80;;;;;;5006986;28;20482;-73
2022/06/26 10:48:00;;;;;;;2.63;2.23;;;30.30;77.40;;;;;;5010562;28;20483;-73
2022/06/26 10:50:35;;;;;;;3.93;1.80;;;30.10;77.30;;;;;;5009192;28;20462;-72
2022/06/26 10:53:20;;;;;;;2.40;1.60;;;30.10;78.50;;;;;;5011921;28;20461;-73
2022/06/26 10:55:51;;;;;;;3.13;1.97;;;30.00;77.70;;;;;;5014924;28;20494;-73
2022/06/26 10:58:21;;;;;;;2.40;1.97;;;29.40;78.20;;;;;;5028951;28;20454;-72
2022/06/26 11:00:51;;;;;;;2.40;1.97;;;29.60;78.50;;;;;;5036537;28;20864;-75
2022/06/26 11:03:19;;;;;;;1.83;1.63;;;29.40;78.30;;;;;;5046774;28;20443;-78
2022/06/26 11:05:55;;;;;;;2.50;2.13;;;29.50;78.70;;;;;;5042401;28;20498;-79
2022/06/26 11:08:27;;;;;;;3.77;1.90;;;29.30;80.00;;;;;;5046930;28;20451;-72
2022/06/26 11:10:59;;;;;;;2.30;2.07;;;29.80;78.60;;;;;;5045263;28;21011;-72
2022/06/26 11:13:26;;;;;;;2.80;2.13;;;29.70;78.80;;;;;;5046099;28;20866;-72
2022/06/26 11:15:53;;;;;;;2.70;2.03;;;29.80;78.00;;;;;;5035040;28;20482;-72
2022/06/26 11:18:20;;;;;;;3.90;2.10;;;29.70;78.90;;;;;;5035266;28;20516;-72
2022/06/26 11:20:49;;;;;;;1.90;1.67;;;29.30;78.90;;;;;;5036066;28;20446;-72
2022/06/26 11:23:22;;;;;;;2.30;1.87;;;29.00;80.30;;;;;;5034090;28;20455;-72
2022/06/26 11:25:53;;;;;;;2.47;2.27;;;29.10;80.80;;;;;;5040137;28;20487;-71
2022/06/26 11:28:21;;;;;;;2.80;1.93;;;28.90;80.90;;;;;;5037730;28;20459;-74
2022/06/26 11:30:49;;;;;;;1.80;1.60;;;28.60;81.90;;;;;;5026199;28;20447;-76
2022/06/26 11:33:25;;;;;;;2.37;1.70;;;28.50;82.40;;;;;;5040355;28;20447;-78
2022/06/26 11:35:52;;;;;;;3.00;2.17;;;28.60;82.40;;;;;;5044243;28;20553;-74
2022/06/26 11:38:21;;;;;;;3.77;3.20;;;28.60;82.10;;;;;;5039077;28;20884;-71
2022/06/26 11:40:50;;;;;;;2.50;2.30;;;28.50;83.00;;;;;;5045308;28;20443;-73
2022/06/26 11:43:18;;;;;;;4.60;2.13;;;28.70;82.50;;;;;;5047696;28;20551;-73
2022/06/26 11:45:46;;;;;;;2.97;2.77;;;28.90;81.70;;;;;;5044542;28;20498;-72
2022/06/26 11:48:17;;;;;;;3.43;2.07;;;29.00;80.80;;;;;;5045857;28;20520;-74
2022/06/26 11:50:46;;;;;;;3.03;2.73;;;29.00;80.70;;;;;;5035643;28;20936;-72
2022/06/26 11:53:21;;;;;;;2.47;2.07;;;29.10;80.30;;;;;;5035336;28;20451;-75
2022/06/26 11:55:50;;;;;;;3.43;2.70;;;29.20;80.40;;;;;;5039929;28;20537;-72
2022/06/26 11:58:18;;;;;;;3.27;2.40;;;29.40;78.80;;;;;;5047844;28;20439;-74
2022/06/26 12:00:46;;;;;;;3.10;2.57;;;29.20;79.30;;;;;;5024991;28;20515;-74
2022/06/26 12:03:14;;;;;;;2.40;2.10;;;29.20;78.90;;;;;;5032210;28;20537;-75
2022/06/26 12:05:45;;;;;;;3.17;2.87;;;29.20;79.90;;;;;;5041220;28;20516;-75
2022/06/26 12:08:17;;;;;;;2.40;2.20;;;29.20;80.20;;;;;;5045830;28;20480;-74
2022/06/26 12:10:49;;;;;;;2.63;2.43;;;29.20;80.00;;;;;;5043861;28;20457;-74
2022/06/26 12:13:24;;;;;;;2.50;2.30;;;29.10;79.80;;;;;;5028505;28;20435;-73
2022/06/26 12:15:52;;;;;;;3.20;2.10;;;28.90;80.20;;;;;;5013519;28;20915;-74
2022/06/26 12:18:19;;;;;;;2.67;2.47;;;28.90;80.20;;;;;;5010704;28;20826;-74
2022/06/26 12:20:51;;;;;;;2.40;2.20;;;28.60;80.60;;;;;;5011315;28;20462;-74
2022/06/26 12:23:18;;;;;;;2.33;2.13;;;28.20;82.00;;;;;;5010239;28;20447;-74
2022/06/26 12:25:49;;;;;;;2.97;2.27;;;28.30;82.60;;;;;;5012062;28;20495;-74
2022/06/26 12:28:23;;;;;;;3.40;3.03;;;28.40;82.10;;;;;;5009587;28;20463;-73
2022/06/26 12:30:52;;;;;;;3.30;3.00;;;28.60;82.20;;;;;;5010141;28;20514;-75
2022/06/26 12:33:19;;;;;;;2.30;2.00;;;28.70;81.50;;;;;;5011607;28;20459;-74
2022/06/26 12:35:46;;;;;;;3.20;2.40;;;28.30;81.50;;;;;;5011407;28;20477;-72
2022/06/26 12:38:15;;;;;;;1.80;1.70;;;28.50;82.10;;;;;;5013513;28;20450;-75
2022/06/26 12:40:42;;;;;;;2.23;2.00;;;28.80;81.70;;;;;;5012325;28;20923;-74
2022/06/26 12:43:11;;;;;;;2.57;2.20;;;29.10;80.50;;;;;;5011715;28;20567;-74
2022/06/26 12:45:38;;;;;;;2.73;2.50;;;29.40;78.60;;;;;;5013210;28;20490;-73
2022/06/26 12:48:05;;;;;;;3.47;2.90;;;29.60;77.60;;;;;;5010962;28;20960;-74
2022/06/26 12:50:33;;;;;;;4.07;2.50;;;29.60;77.00;;;;;;5009529;28;20543;-73
2022/06/26 12:53:00;;;;;;;3.17;2.43;;;29.60;77.50;;;;;;5009068;28;20443;-74
2022/06/26 12:55:27;;;;;;;2.83;2.57;;;29.50;77.60;;;;;;5008719;28;21352;-74
2022/06/26 12:57:56;;;;;;;3.53;3.23;;;29.30;77.50;;;;;;5010510;28;20465;-73
2022/06/26 13:00:25;;;;;;;3.57;3.27;;;29.10;77.20;;;;;;5009340;28;20606;-75
2022/06/26 13:02:52;;;;;;;5.33;2.83;;;28.50;77.70;;;;;;5009151;28;20450;-74
2022/06/26 13:05:19;;;;;;;2.47;2.27;;;28.40;79.20;;;;;;5009308;28;20625;-75